sensor_id;sensor_type;location;lat;lon;timestamp;pressure;altitude;pressure_sealevel;temperature;humidity
69911;BME280;63555;49.920;17.868;2023-05-23T00:02:13;98418.63;;;9.76;75.67
69911;BME280;63555;49.920;17.868;2023-05-23T00:07:14;98423.06;;;9.76;75.64
69911;BME280;63555;49.920;17.868;2023-05-23T00:12:15;98404.97;;;9.71;76.26
69911;BME280;63555;49.920;17.868;2023-05-23T00:17:15;98404.97;;;9.71;76.14
69911;BME280;63555;49.920;17.868;2023-05-23T00:22:16;98403.66;;;9.66;76.19
69911;BME280;63555;49.920;17.868;2023-05-23T00:27:16;98405.56;;;9.64;76.48
69911;BME280;63555;49.920;17.868;2023-05-23T00:32:17;98403.31;;;9.59;76.68
69911;BME280;63555;49.920;17.868;2023-05-23T00:37:17;98401.50;;;9.60;76.67
69911;BME280;63555;49.920;17.868;2023-05-23T00:42:17;98403.31;;;9.59;76.59
69911;BME280;63555;49.920;17.868;2023-05-23T00:47:18;98397.44;;;9.55;76.74
69911;BME280;63555;49.920;17.868;2023-05-23T00:52:18;98395.75;;;9.54;76.81
69911;BME280;63555;49.920;17.868;2023-05-23T00:57:19;98387.22;;;9.51;76.50
69911;BME280;63555;49.920;17.868;2023-05-23T01:02:19;98396.09;;;9.50;76.52
69911;BME280;63555;49.920;17.868;2023-05-23T01:07:20;98396.44;;;9.45;76.88
69911;BME280;63555;49.920;17.868;2023-05-23T01:12:44;98398.47;;;9.42;77.08
69911;BME280;63555;49.920;17.868;2023-05-23T01:24:02;98390.53;;;9.19;77.36
69911;BME280;63555;49.920;17.868;2023-05-23T01:28:49;98387.03;;;9.08;77.70
69911;BME280;63555;49.920;17.868;2023-05-23T01:33:52;98389.75;;;8.95;77.37
69911;BME280;63555;49.920;17.868;2023-05-23T01:38:53;98392.84;;;8.89;78.00
69911;BME280;63555;49.920;17.868;2023-05-23T01:43:53;98384.34;;;8.85;78.31
69911;BME280;63555;49.920;17.868;2023-05-23T01:48:56;98385.53;;;8.81;78.19
69911;BME280;63555;49.920;17.868;2023-05-23T01:53:56;98388.50;;;8.77;78.25
69911;BME280;63555;49.920;17.868;2023-05-23T01:58:57;98375.41;;;8.64;78.31
69911;BME280;63555;49.920;17.868;2023-05-23T02:03:57;98378.38;;;8.59;78.82
69911;BME280;63555;49.920;17.868;2023-05-23T02:08:58;98372.16;;;8.60;78.52
69911;BME280;63555;49.920;17.868;2023-05-23T02:13:58;98362.81;;;8.56;78.41
69911;BME280;63555;49.920;17.868;2023-05-23T02:18:58;98358.13;;;8.49;78.70
69911;BME280;63555;49.920;17.868;2023-05-23T02:23:59;98361.22;;;8.43;78.72
69911;BME280;63555;49.920;17.868;2023-05-23T02:28:59;98367.22;;;8.32;78.57
69911;BME280;63555;49.920;17.868;2023-05-23T02:33:59;98355.25;;;8.28;79.25
69911;BME280;63555;49.920;17.868;2023-05-23T02:39:00;98346.66;;;8.26;78.78
69911;BME280;63555;49.920;17.868;2023-05-23T02:44:00;98347.81;;;8.22;79.09
69911;BME280;63555;49.920;17.868;2023-05-23T02:49:00;98354.75;;;8.23;78.70
69911;BME280;63555;49.920;17.868;2023-05-23T02:54:01;98354.88;;;8.21;79.20
69911;BME280;63555;49.920;17.868;2023-05-23T02:59:01;98348.78;;;8.21;79.33
69911;BME280;63555;49.920;17.868;2023-05-23T03:04:02;98343.41;;;8.22;79.10
69911;BME280;63555;49.920;17.868;2023-05-23T03:09:02;98342.00;;;8.29;79.08
69911;BME280;63555;49.920;17.868;2023-05-23T03:14:02;98335.91;;;8.29;79.19
69911;BME280;63555;49.920;17.868;2023-05-23T03:19:03;98333.28;;;8.29;79.34
69911;BME280;63555;49.920;17.868;2023-05-23T03:24:03;98336.34;;;8.36;79.36
69911;BME280;63555;49.920;17.868;2023-05-23T03:29:04;98332.41;;;8.41;79.21
69911;BME280;63555;49.920;17.868;2023-05-23T03:34:05;98337.09;;;8.49;79.72
69911;BME280;63555;49.920;17.868;2023-05-23T03:39:05;98336.31;;;8.59;79.89
69911;BME280;63555;49.920;17.868;2023-05-23T03:44:06;98325.97;;;8.69;79.80
69911;BME280;63555;49.920;17.868;2023-05-23T03:49:07;98318.97;;;8.81;79.67
69911;BME280;63555;49.920;17.868;2023-05-23T03:54:07;98311.59;;;8.97;79.98
69911;BME280;63555;49.920;17.868;2023-05-23T03:59:07;98320.81;;;9.14;79.83
69911;BME280;63555;49.920;17.868;2023-05-23T04:04:08;98315.94;;;9.32;79.34
69911;BME280;63555;49.920;17.868;2023-05-23T04:09:08;98315.44;;;9.49;79.52
69911;BME280;63555;49.920;17.868;2023-05-23T04:14:09;98310.56;;;9.67;79.21
69911;BME280;63555;49.920;17.868;2023-05-23T04:19:10;98313.53;;;9.84;79.18
69911;BME280;63555;49.920;17.868;2023-05-23T04:24:11;98308.34;;;10.05;79.23
69911;BME280;63555;49.920;17.868;2023-05-23T04:29:11;98307.47;;;10.27;79.06
69911;BME280;63555;49.920;17.868;2023-05-23T04:34:12;98304.50;;;10.52;78.95
69911;BME280;63555;49.920;17.868;2023-05-23T04:39:12;98297.19;;;10.77;78.79
69911;BME280;63555;49.920;17.868;2023-05-23T04:44:13;98300.41;;;11.01;78.33
69911;BME280;63555;49.920;17.868;2023-05-23T04:49:15;98286.34;;;11.22;78.34
69911;BME280;63555;49.920;17.868;2023-05-23T04:54:15;98280.91;;;11.44;78.24
69911;BME280;63555;49.920;17.868;2023-05-23T04:59:16;98283.06;;;11.69;77.81
69911;BME280;63555;49.920;17.868;2023-05-23T05:04:16;98282.59;;;11.95;77.67
69911;BME280;63555;49.920;17.868;2023-05-23T05:09:16;98279.75;;;12.17;77.52
69911;BME280;63555;49.920;17.868;2023-05-23T05:14:18;98286.31;;;12.42;77.12
69911;BME280;63555;49.920;17.868;2023-05-23T05:19:18;98278.63;;;12.68;77.27
69911;BME280;63555;49.920;17.868;2023-05-23T05:24:18;98264.94;;;12.92;76.46
69911;BME280;63555;49.920;17.868;2023-05-23T05:29:22;98267.41;;;13.13;76.57
69911;BME280;63555;49.920;17.868;2023-05-23T05:34:22;98268.50;;;13.29;76.37
69911;BME280;63555;49.920;17.868;2023-05-23T05:39:23;98268.88;;;13.44;76.38
69911;BME280;63555;49.920;17.868;2023-05-23T05:44:24;98270.16;;;13.67;76.27
69911;BME280;63555;49.920;17.868;2023-05-23T05:49:26;98274.31;;;13.97;75.86
69911;BME280;63555;49.920;17.868;2023-05-23T05:54:26;98267.53;;;14.30;75.70
69911;BME280;63555;49.920;17.868;2023-05-23T05:59:26;98266.19;;;14.62;75.12
69911;BME280;63555;49.920;17.868;2023-05-23T06:04:27;98261.09;;;14.86;74.45
69911;BME280;63555;49.920;17.868;2023-05-23T06:09:27;98250.31;;;15.14;74.25
69911;BME280;63555;49.920;17.868;2023-05-23T06:14:28;98252.81;;;15.49;73.71
69911;BME280;63555;49.920;17.868;2023-05-23T06:19:28;98245.22;;;15.97;73.09
69911;BME280;63555;49.920;17.868;2023-05-23T06:24:28;98243.63;;;17.09;72.58
69911;BME280;63555;49.920;17.868;2023-05-23T06:29:29;98230.97;;;19.27;68.65
69911;BME280;63555;49.920;17.868;2023-05-23T06:34:30;98231.78;;;21.36;63.55
69911;BME280;63555;49.920;17.868;2023-05-23T06:39:33;98230.81;;;23.25;59.41
69911;BME280;63555;49.920;17.868;2023-05-23T06:44:34;98228.50;;;24.82;56.15
69911;BME280;63555;49.920;17.868;2023-05-23T06:49:34;98229.13;;;26.07;52.74
69911;BME280;63555;49.920;17.868;2023-05-23T06:54:35;98222.00;;;26.96;51.36
69911;BME280;63555;49.920;17.868;2023-05-23T06:59:35;98206.59;;;27.67;49.00
69911;BME280;63555;49.920;17.868;2023-05-23T07:04:35;98200.66;;;28.50;46.32
69911;BME280;63555;49.920;17.868;2023-05-23T07:09:36;98193.97;;;28.86;44.36
69911;BME280;63555;49.920;17.868;2023-05-23T07:14:37;98191.59;;;29.45;42.70
69911;BME280;63555;49.920;17.868;2023-05-23T07:19:37;98195.69;;;30.08;41.11
69911;BME280;63555;49.920;17.868;2023-05-23T07:24:38;98183.75;;;30.63;38.77
69911;BME280;63555;49.920;17.868;2023-05-23T07:29:38;98175.09;;;31.08;37.56
69911;BME280;63555;49.920;17.868;2023-05-23T07:34:39;98172.47;;;31.65;36.45
69911;BME280;63555;49.920;17.868;2023-05-23T07:39:40;98163.28;;;31.87;35.92
69911;BME280;63555;49.920;17.868;2023-05-23T07:44:40;98148.13;;;32.21;34.87
69911;BME280;63555;49.920;17.868;2023-05-23T07:49:41;98143.25;;;32.59;34.36
69911;BME280;63555;49.920;17.868;2023-05-23T07:54:41;98145.97;;;33.30;33.36
69911;BME280;63555;49.920;17.868;2023-05-23T07:59:42;98139.44;;;33.06;33.12
69911;BME280;63555;49.920;17.868;2023-05-23T08:04:43;98140.22;;;32.20;34.17
69911;BME280;63555;49.920;17.868;2023-05-23T08:09:44;98141.53;;;32.07;34.35
69911;BME280;63555;49.920;17.868;2023-05-23T08:14:44;98134.81;;;32.81;33.58
69911;BME280;63555;49.920;17.868;2023-05-23T08:19:45;98140.13;;;33.57;32.25
69911;BME280;63555;49.920;17.868;2023-05-23T08:24:45;98133.44;;;32.53;33.28
69911;BME280;63555;49.920;17.868;2023-05-23T08:29:47;98137.50;;;31.47;35.14
69911;BME280;63555;49.920;17.868;2023-05-23T08:34:51;98123.00;;;32.19;34.17
69911;BME280;63555;49.920;17.868;2023-05-23T08:39:51;98117.94;;;33.64;32.31
69911;BME280;63555;49.920;17.868;2023-05-23T08:44:52;98116.47;;;34.99;31.24
69911;BME280;63555;49.920;17.868;2023-05-23T08:49:54;98118.91;;;35.53;30.56
69911;BME280;63555;49.920;17.868;2023-05-23T08:54:54;98110.53;;;36.06;29.41
69911;BME280;63555;49.920;17.868;2023-05-23T08:59:56;98113.13;;;36.16;29.93
69911;BME280;63555;49.920;17.868;2023-05-23T09:04:57;98118.19;;;36.09;29.50
69911;BME280;63555;49.920;17.868;2023-05-23T09:09:58;98120.25;;;34.40;30.92
69911;BME280;63555;49.920;17.868;2023-05-23T09:14:59;98112.84;;;33.42;31.86
69911;BME280;63555;49.920;17.868;2023-05-23T09:19:59;98102.56;;;32.62;32.98
69911;BME280;63555;49.920;17.868;2023-05-23T09:25:00;98100.28;;;31.78;33.91
69911;BME280;63555;49.920;17.868;2023-05-23T09:30:08;98095.75;;;32.85;33.89
69911;BME280;63555;49.920;17.868;2023-05-23T09:35:09;98103.94;;;35.17;30.33
69911;BME280;63555;49.920;17.868;2023-05-23T09:40:13;98097.47;;;37.00;29.24
69911;BME280;63555;49.920;17.868;2023-05-23T09:45:15;98093.00;;;36.21;29.24
69911;BME280;63555;49.920;17.868;2023-05-23T09:50:16;98104.50;;;33.82;31.36
69911;BME280;63555;49.920;17.868;2023-05-23T09:55:18;98110.66;;;30.18;39.70
69911;BME280;63555;49.920;17.868;2023-05-23T10:00:19;98119.84;;;25.55;51.91
69911;BME280;63555;49.920;17.868;2023-05-23T10:05:59;98118.97;;;22.77;69.06
69911;BME280;63555;49.920;17.868;2023-05-23T10:16:37;98116.75;;;21.67;84.11
69911;BME280;63555;49.920;17.868;2023-05-23T10:21:43;98116.41;;;21.29;85.63
69911;BME280;63555;49.920;17.868;2023-05-23T10:26:44;98120.75;;;21.98;91.91
69911;BME280;63555;49.920;17.868;2023-05-23T10:31:45;98120.50;;;24.14;100.00
69911;BME280;63555;49.920;17.868;2023-05-23T10:37:01;98124.53;;;25.78;100.00
69911;BME280;63555;49.920;17.868;2023-05-23T10:42:59;98132.78;;;26.43;100.00
69911;BME280;63555;49.920;17.868;2023-05-23T10:47:32;98167.03;;;25.34;82.30
69911;BME280;63555;49.920;17.868;2023-05-23T10:52:40;98194.00;;;23.18;84.11
69911;BME280;63555;49.920;17.868;2023-05-23T10:57:41;98195.28;;;22.70;89.71
69911;BME280;63555;49.920;17.868;2023-05-23T11:02:53;98188.59;;;23.45;89.19
69911;BME280;63555;49.920;17.868;2023-05-23T11:08:10;98184.53;;;25.06;83.29
69911;BME280;63555;49.920;17.868;2023-05-23T11:13:11;98183.22;;;25.70;78.72
69911;BME280;63555;49.920;17.868;2023-05-23T11:18:27;98165.13;;;25.89;74.79
69911;BME280;63555;49.920;17.868;2023-05-23T11:23:40;98170.53;;;24.66;74.94
69911;BME280;63555;49.920;17.868;2023-05-23T11:28:56;98182.59;;;23.43;76.24
69911;BME280;63555;49.920;17.868;2023-05-23T11:33:57;98191.91;;;22.35;77.55
69911;BME280;63555;49.920;17.868;2023-05-23T11:39:01;98178.44;;;21.60;78.96
69911;BME280;63555;49.920;17.868;2023-05-23T11:44:10;98176.66;;;21.26;79.22
69911;BME280;63555;49.920;17.868;2023-05-23T11:49:11;98179.38;;;21.05;79.31
69911;BME280;63555;49.920;17.868;2023-05-23T11:54:11;98196.28;;;21.06;78.48
69911;BME280;63555;49.920;17.868;2023-05-23T11:59:12;98196.16;;;20.86;77.80
69911;BME280;63555;49.920;17.868;2023-05-23T12:04:13;98189.94;;;20.57;77.61
69911;BME280;63555;49.920;17.868;2023-05-23T12:09:14;98190.31;;;20.54;76.07
69911;BME280;63555;49.920;17.868;2023-05-23T12:14:16;98192.56;;;20.79;75.44
69911;BME280;63555;49.920;17.868;2023-05-23T12:19:17;98192.97;;;21.73;72.84
69911;BME280;63555;49.920;17.868;2023-05-23T12:24:21;98184.94;;;22.73;68.49
69911;BME280;63555;49.920;17.868;2023-05-23T12:29:30;98171.25;;;23.08;65.75
69911;BME280;63555;49.920;17.868;2023-05-23T12:34:31;98180.50;;;23.38;64.29
69911;BME280;63555;49.920;17.868;2023-05-23T12:39:31;98161.94;;;25.01;60.53
69911;BME280;63555;49.920;17.868;2023-05-23T12:44:33;98158.28;;;26.47;57.30
69911;BME280;63555;49.920;17.868;2023-05-23T12:49:33;98166.47;;;28.82;50.94
69911;BME280;63555;49.920;17.868;2023-05-23T12:54:33;98164.03;;;30.51;48.25
69911;BME280;63555;49.920;17.868;2023-05-23T12:59:34;98170.50;;;31.51;44.73
69911;BME280;63555;49.920;17.868;2023-05-23T13:04:34;98171.78;;;30.37;45.77
69911;BME280;63555;49.920;17.868;2023-05-23T13:09:34;98162.53;;;28.73;47.56
69911;BME280;63555;49.920;17.868;2023-05-23T13:14:35;98162.63;;;27.01;50.77
69911;BME280;63555;49.920;17.868;2023-05-23T13:19:35;98155.69;;;25.44;52.52
69911;BME280;63555;49.920;17.868;2023-05-23T13:24:39;98171.22;;;24.24;54.50
69911;BME280;63555;49.920;17.868;2023-05-23T13:29:40;98169.13;;;23.43;55.56
69911;BME280;63555;49.920;17.868;2023-05-23T13:34:41;98170.25;;;22.69;56.94
69911;BME280;63555;49.920;17.868;2023-05-23T13:39:41;98156.16;;;22.28;58.04
69911;BME280;63555;49.920;17.868;2023-05-23T13:44:41;98155.31;;;22.07;58.69
69911;BME280;63555;49.920;17.868;2023-05-23T13:49:42;98175.56;;;22.10;58.77
69911;BME280;63555;49.920;17.868;2023-05-23T13:54:42;98176.81;;;22.20;59.12
69911;BME280;63555;49.920;17.868;2023-05-23T13:59:43;98175.41;;;22.77;57.88
69911;BME280;63555;49.920;17.868;2023-05-23T14:04:43;98175.94;;;23.45;56.88
69911;BME280;63555;49.920;17.868;2023-05-23T14:09:44;98162.19;;;23.73;56.46
69911;BME280;63555;49.920;17.868;2023-05-23T14:14:44;98161.19;;;24.06;56.30
69911;BME280;63555;49.920;17.868;2023-05-23T14:19:45;98177.47;;;24.18;55.71
69911;BME280;63555;49.920;17.868;2023-05-23T14:24:46;98190.16;;;23.72;56.31
69911;BME280;63555;49.920;17.868;2023-05-23T14:29:46;98211.63;;;22.95;57.71
69911;BME280;63555;49.920;17.868;2023-05-23T14:34:47;98217.75;;;22.29;58.79
69911;BME280;63555;49.920;17.868;2023-05-23T14:39:48;98216.59;;;21.90;59.79
69911;BME280;63555;49.920;17.868;2023-05-23T14:44:48;98210.09;;;21.72;60.57
69911;BME280;63555;49.920;17.868;2023-05-23T14:49:48;98206.41;;;21.73;60.24
69911;BME280;63555;49.920;17.868;2023-05-23T14:54:49;98213.03;;;21.83;60.40
69911;BME280;63555;49.920;17.868;2023-05-23T14:59:49;98202.72;;;21.87;59.74
69911;BME280;63555;49.920;17.868;2023-05-23T15:04:50;98195.53;;;21.94;59.82
69911;BME280;63555;49.920;17.868;2023-05-23T15:09:50;98189.00;;;22.23;59.32
69911;BME280;63555;49.920;17.868;2023-05-23T15:14:50;98190.88;;;22.22;59.24
69911;BME280;63555;49.920;17.868;2023-05-23T15:19:51;98181.47;;;21.85;59.84
69911;BME280;63555;49.920;17.868;2023-05-23T15:24:51;98175.69;;;21.41;60.80
69911;BME280;63555;49.920;17.868;2023-05-23T15:29:51;98170.47;;;20.98;61.71
69911;BME280;63555;49.920;17.868;2023-05-23T15:34:52;98183.16;;;20.61;62.90
69911;BME280;63555;49.920;17.868;2023-05-23T15:39:52;98190.94;;;20.35;63.16
69911;BME280;63555;49.920;17.868;2023-05-23T15:44:53;98186.59;;;20.13;63.78
69911;BME280;63555;49.920;17.868;2023-05-23T15:49:53;98184.81;;;19.98;64.13
69911;BME280;63555;49.920;17.868;2023-05-23T15:54:55;98182.06;;;19.77;64.89
69911;BME280;63555;49.920;17.868;2023-05-23T15:59:56;98184.34;;;19.59;65.42
69911;BME280;63555;49.920;17.868;2023-05-23T16:04:56;98182.75;;;19.50;65.98
69911;BME280;63555;49.920;17.868;2023-05-23T16:09:57;98188.41;;;19.25;67.18
69911;BME280;63555;49.920;17.868;2023-05-23T16:14:57;98197.00;;;18.83;68.78
69911;BME280;63555;49.920;17.868;2023-05-23T16:19:57;98199.47;;;18.47;70.15
69911;BME280;63555;49.920;17.868;2023-05-23T16:24:58;98206.03;;;18.13;71.36
69911;BME280;63555;49.920;17.868;2023-05-23T16:30:02;98212.00;;;17.93;73.16
69911;BME280;63555;49.920;17.868;2023-05-23T16:35:03;98219.28;;;17.76;73.90
69911;BME280;63555;49.920;17.868;2023-05-23T16:40:04;98224.50;;;17.61;74.46
69911;BME280;63555;49.920;17.868;2023-05-23T16:45:05;98224.25;;;17.40;75.26
69911;BME280;63555;49.920;17.868;2023-05-23T16:50:06;98220.16;;;17.05;77.07
69911;BME280;63555;49.920;17.868;2023-05-23T16:55:08;98214.88;;;16.80;78.96
69911;BME280;63555;49.920;17.868;2023-05-23T17:00:09;98222.53;;;16.59;82.10
69911;BME280;63555;49.920;17.868;2023-05-23T17:05:09;98228.84;;;16.58;85.51
69911;BME280;63555;49.920;17.868;2023-05-23T17:10:10;98227.34;;;16.55;88.36
69911;BME280;63555;49.920;17.868;2023-05-23T17:15:10;98239.50;;;16.50;89.38
69911;BME280;63555;49.920;17.868;2023-05-23T17:20:11;98245.44;;;16.36;90.69
69911;BME280;63555;49.920;17.868;2023-05-23T17:25:11;98252.94;;;16.32;91.73
69911;BME280;63555;49.920;17.868;2023-05-23T17:30:12;98247.56;;;16.00;91.53
69911;BME280;63555;49.920;17.868;2023-05-23T17:35:17;98257.34;;;15.91;93.52
69911;BME280;63555;49.920;17.868;2023-05-23T17:40:18;98271.13;;;15.86;93.36
69911;BME280;63555;49.920;17.868;2023-05-23T17:45:18;98270.25;;;15.78;94.08
69911;BME280;63555;49.920;17.868;2023-05-23T17:50:19;98262.44;;;15.76;95.03
69911;BME280;63555;49.920;17.868;2023-05-23T17:55:19;98263.94;;;15.79;95.58
69911;BME280;63555;49.920;17.868;2023-05-23T18:00:20;98277.22;;;15.71;95.60
69911;BME280;63555;49.920;17.868;2023-05-23T18:05:20;98272.72;;;15.71;96.07
69911;BME280;63555;49.920;17.868;2023-05-23T18:10:22;98272.53;;;15.65;96.04
69911;BME280;63555;49.920;17.868;2023-05-23T18:15:23;98280.72;;;15.53;96.07
69911;BME280;63555;49.920;17.868;2023-05-23T18:20:24;98265.69;;;15.36;95.80
69911;BME280;63555;49.920;17.868;2023-05-23T18:25:25;98275.91;;;15.23;96.18
69911;BME280;63555;49.920;17.868;2023-05-23T18:30:28;98272.59;;;15.21;97.38
69911;BME280;63555;49.920;17.868;2023-05-23T18:35:28;98283.56;;;15.26;97.87
69911;BME280;63555;49.920;17.868;2023-05-23T18:40:29;98287.69;;;15.20;97.63
69911;BME280;63555;49.920;17.868;2023-05-23T18:45:31;98295.28;;;15.15;97.96
69911;BME280;63555;49.920;17.868;2023-05-23T18:50:32;98297.13;;;15.15;98.17
69911;BME280;63555;49.920;17.868;2023-05-23T18:55:32;98308.06;;;15.12;98.23
69911;BME280;63555;49.920;17.868;2023-05-23T19:00:33;98304.34;;;15.05;97.81
69911;BME280;63555;49.920;17.868;2023-05-23T19:05:33;98300.72;;;15.06;98.36
69911;BME280;63555;49.920;17.868;2023-05-23T19:10:33;98303.88;;;15.09;98.98
69911;BME280;63555;49.920;17.868;2023-05-23T19:15:34;98302.44;;;15.15;99.32
69911;BME280;63555;49.920;17.868;2023-05-23T19:20:34;98298.25;;;15.12;99.21
69911;BME280;63555;49.920;17.868;2023-05-23T19:25:34;98299.03;;;15.05;98.82
69911;BME280;63555;49.920;17.868;2023-05-23T19:30:36;98290.88;;;14.98;98.86
69911;BME280;63555;49.920;17.868;2023-05-23T19:35:37;98302.47;;;14.97;99.20
69911;BME280;63555;49.920;17.868;2023-05-23T19:40:37;98292.31;;;14.92;99.29
69911;BME280;63555;49.920;17.868;2023-05-23T19:45:38;98299.44;;;14.92;99.29
69911;BME280;63555;49.920;17.868;2023-05-23T19:50:38;98305.53;;;14.84;99.16
69911;BME280;63555;49.920;17.868;2023-05-23T19:55:39;98310.63;;;14.78;99.22
69911;BME280;63555;49.920;17.868;2023-05-23T20:00:41;98315.47;;;14.82;99.59
69911;BME280;63555;49.920;17.868;2023-05-23T20:05:42;98321.31;;;14.86;99.74
69911;BME280;63555;49.920;17.868;2023-05-23T20:10:42;98319.03;;;14.91;100.00
69911;BME280;63555;49.920;17.868;2023-05-23T20:15:43;98322.22;;;14.94;100.00
69911;BME280;63555;49.920;17.868;2023-05-23T20:20:43;98319.41;;;14.96;100.00
69911;BME280;63555;49.920;17.868;2023-05-23T20:25:44;98323.03;;;14.95;100.00
69911;BME280;63555;49.920;17.868;2023-05-23T20:30:45;98323.88;;;14.95;100.00
69911;BME280;63555;49.920;17.868;2023-05-23T20:35:45;98332.66;;;14.96;100.00
69911;BME280;63555;49.920;17.868;2023-05-23T20:40:47;98341.56;;;14.87;100.00
69911;BME280;63555;49.920;17.868;2023-05-23T20:45:48;98342.84;;;14.83;100.00
69911;BME280;63555;49.920;17.868;2023-05-23T20:50:48;98349.16;;;14.82;100.00
69911;BME280;63555;49.920;17.868;2023-05-23T20:55:50;98347.78;;;14.78;100.00
69911;BME280;63555;49.920;17.868;2023-05-23T21:00:51;98347.63;;;14.79;100.00
69911;BME280;63555;49.920;17.868;2023-05-23T21:05:51;98364.41;;;14.80;100.00
69911;BME280;63555;49.920;17.868;2023-05-23T21:10:51;98374.47;;;14.76;100.00
69911;BME280;63555;49.920;17.868;2023-05-23T21:15:52;98384.81;;;14.79;100.00
69911;BME280;63555;49.920;17.868;2023-05-23T21:20:52;98388.97;;;14.82;100.00
69911;BME280;63555;49.920;17.868;2023-05-23T21:25:52;98393.13;;;14.84;100.00
69911;BME280;63555;49.920;17.868;2023-05-23T21:30:53;98390.03;;;14.89;100.00
69911;BME280;63555;49.920;17.868;2023-05-23T21:35:53;98398.22;;;14.95;100.00
69911;BME280;63555;49.920;17.868;2023-05-23T21:40:54;98399.75;;;14.98;100.00
69911;BME280;63555;49.920;17.868;2023-05-23T21:45:54;98397.22;;;14.96;100.00
69911;BME280;63555;49.920;17.868;2023-05-23T21:50:54;98402.00;;;14.93;100.00
69911;BME280;63555;49.920;17.868;2023-05-23T21:55:55;98404.66;;;14.93;100.00
69911;BME280;63555;49.920;17.868;2023-05-23T22:00:55;98402.16;;;14.91;100.00
69911;BME280;63555;49.920;17.868;2023-05-23T22:05:55;98409.44;;;14.89;100.00
69911;BME280;63555;49.920;17.868;2023-05-23T22:10:56;98414.59;;;14.91;100.00
69911;BME280;63555;49.920;17.868;2023-05-23T22:15:56;98421.28;;;14.95;100.00
69911;BME280;63555;49.920;17.868;2023-05-23T22:20:57;98421.13;;;14.96;100.00
69911;BME280;63555;49.920;17.868;2023-05-23T22:25:57;98427.28;;;14.97;100.00
69911;BME280;63555;49.920;17.868;2023-05-23T22:30:57;98421.13;;;14.96;100.00
69911;BME280;63555;49.920;17.868;2023-05-23T22:35:58;98420.28;;;14.96;100.00
69911;BME280;63555;49.920;17.868;2023-05-23T22:40:58;98424.63;;;14.97;100.00
69911;BME280;63555;49.920;17.868;2023-05-23T22:45:58;98417.94;;;14.93;100.00
69911;BME280;63555;49.920;17.868;2023-05-23T22:51:02;98412.72;;;14.83;100.00
69911;BME280;63555;49.920;17.868;2023-05-23T22:56:03;98416.97;;;14.76;100.00
69911;BME280;63555;49.920;17.868;2023-05-23T23:01:03;98421.44;;;14.76;100.00
69911;BME280;63555;49.920;17.868;2023-05-23T23:06:04;98419.88;;;14.73;100.00
69911;BME280;63555;49.920;17.868;2023-05-23T23:11:05;98419.88;;;14.73;100.00
69911;BME280;63555;49.920;17.868;2023-05-23T23:16:05;98413.72;;;14.73;100.00
69911;BME280;63555;49.920;17.868;2023-05-23T23:21:07;98413.63;;;14.74;100.00
69911;BME280;63555;49.920;17.868;2023-05-23T23:26:07;98416.81;;;14.78;100.00
69911;BME280;63555;49.920;17.868;2023-05-23T23:31:08;98411.22;;;14.71;100.00
69911;BME280;63555;49.920;17.868;2023-05-23T23:36:08;98413.34;;;14.68;100.00
69911;BME280;63555;49.920;17.868;2023-05-23T23:41:09;98414.94;;;14.60;100.00
69911;BME280;63555;49.920;17.868;2023-05-23T23:46:09;98412.88;;;14.54;100.00
69911;BME280;63555;49.920;17.868;2023-05-23T23:51:10;98409.53;;;14.52;100.00
69911;BME280;63555;49.920;17.868;2023-05-23T23:56:11;98410.00;;;14.48;100.00
